sensor_id;sensor_type;location;lat;lon;timestamp;P1;durP1;ratioP1;P2;durP2;ratioP2
74320;SDS011;62738;45.772;4.804;2023-03-12T00:02:19;27.92;;;18.17;;
74320;SDS011;62738;45.772;4.804;2023-03-12T00:04:46;26.55;;;17.67;;
74320;SDS011;62738;45.772;4.804;2023-03-12T00:07:13;25.35;;;17.10;;
74320;SDS011;62738;45.772;4.804;2023-03-12T00:09:41;26.95;;;17.10;;
74320;SDS011;62738;45.772;4.804;2023-03-12T00:12:07;27.02;;;17.80;;
74320;SDS011;62738;45.772;4.804;2023-03-12T00:14:34;27.92;;;17.63;;
74320;SDS011;62738;45.772;4.804;2023-03-12T00:17:01;26.60;;;17.38;;
74320;SDS011;62738;45.772;4.804;2023-03-12T00:19:28;27.60;;;17.30;;
74320;SDS011;62738;45.772;4.804;2023-03-12T00:21:54;28.63;;;17.75;;
74320;SDS011;62738;45.772;4.804;2023-03-12T00:24:21;30.73;;;18.08;;
74320;SDS011;62738;45.772;4.804;2023-03-12T00:26:48;27.98;;;17.90;;
74320;SDS011;62738;45.772;4.804;2023-03-12T00:29:14;31.08;;;19.15;;
74320;SDS011;62738;45.772;4.804;2023-03-12T00:31:41;30.63;;;19.30;;
74320;SDS011;62738;45.772;4.804;2023-03-12T00:34:08;31.27;;;18.92;;
74320;SDS011;62738;45.772;4.804;2023-03-12T00:36:35;32.67;;;20.00;;
74320;SDS011;62738;45.772;4.804;2023-03-12T00:39:02;31.73;;;18.42;;
74320;SDS011;62738;45.772;4.804;2023-03-12T00:41:29;31.08;;;19.75;;
74320;SDS011;62738;45.772;4.804;2023-03-12T00:43:56;34.60;;;20.10;;
74320;SDS011;62738;45.772;4.804;2023-03-12T00:46:23;35.58;;;19.95;;
74320;SDS011;62738;45.772;4.804;2023-03-12T00:48:50;32.30;;;19.30;;
74320;SDS011;62738;45.772;4.804;2023-03-12T00:51:17;31.50;;;20.52;;
74320;SDS011;62738;45.772;4.804;2023-03-12T00:53:44;31.42;;;18.95;;
74320;SDS011;62738;45.772;4.804;2023-03-12T00:56:10;31.35;;;18.60;;
74320;SDS011;62738;45.772;4.804;2023-03-12T00:58:37;32.85;;;19.45;;
74320;SDS011;62738;45.772;4.804;2023-03-12T01:01:04;32.55;;;19.00;;
74320;SDS011;62738;45.772;4.804;2023-03-12T01:03:31;30.33;;;18.00;;
74320;SDS011;62738;45.772;4.804;2023-03-12T01:05:57;29.98;;;18.23;;
74320;SDS011;62738;45.772;4.804;2023-03-12T01:08:24;33.20;;;19.48;;
74320;SDS011;62738;45.772;4.804;2023-03-12T01:10:51;32.63;;;19.45;;
74320;SDS011;62738;45.772;4.804;2023-03-12T01:13:18;34.85;;;20.90;;
74320;SDS011;62738;45.772;4.804;2023-03-12T01:15:45;29.98;;;19.45;;
74320;SDS011;62738;45.772;4.804;2023-03-12T01:18:11;30.90;;;18.73;;
74320;SDS011;62738;45.772;4.804;2023-03-12T01:20:38;32.17;;;18.73;;
74320;SDS011;62738;45.772;4.804;2023-03-12T01:23:06;32.72;;;19.45;;
74320;SDS011;62738;45.772;4.804;2023-03-12T01:25:33;30.50;;;19.23;;
74320;SDS011;62738;45.772;4.804;2023-03-12T01:28:01;31.58;;;19.13;;
74320;SDS011;62738;45.772;4.804;2023-03-12T01:30:28;31.77;;;18.85;;
74320;SDS011;62738;45.772;4.804;2023-03-12T01:32:55;32.42;;;18.55;;
74320;SDS011;62738;45.772;4.804;2023-03-12T01:35:21;32.92;;;19.10;;
74320;SDS011;62738;45.772;4.804;2023-03-12T01:37:48;30.13;;;17.58;;
74320;SDS011;62738;45.772;4.804;2023-03-12T01:40:18;28.95;;;17.15;;
74320;SDS011;62738;45.772;4.804;2023-03-12T01:42:54;28.65;;;16.42;;
74320;SDS011;62738;45.772;4.804;2023-03-12T01:48:26;29.55;;;16.88;;
74320;SDS011;62738;45.772;4.804;2023-03-12T01:50:57;29.60;;;17.90;;
74320;SDS011;62738;45.772;4.804;2023-03-12T01:53:25;30.02;;;18.00;;
74320;SDS011;62738;45.772;4.804;2023-03-12T01:55:52;33.40;;;19.75;;
74320;SDS011;62738;45.772;4.804;2023-03-12T01:58:18;30.20;;;18.50;;
74320;SDS011;62738;45.772;4.804;2023-03-12T02:03:20;26.70;;;16.45;;
74320;SDS011;62738;45.772;4.804;2023-03-12T02:05:50;28.15;;;16.90;;
74320;SDS011;62738;45.772;4.804;2023-03-12T02:08:20;28.77;;;16.83;;
74320;SDS011;62738;45.772;4.804;2023-03-12T02:10:48;29.75;;;16.58;;
74320;SDS011;62738;45.772;4.804;2023-03-12T02:13:15;26.75;;;16.33;;
74320;SDS011;62738;45.772;4.804;2023-03-12T02:15:42;30.85;;;17.80;;
74320;SDS011;62738;45.772;4.804;2023-03-12T02:18:10;27.95;;;16.60;;
74320;SDS011;62738;45.772;4.804;2023-03-12T02:23:32;27.38;;;17.33;;
74320;SDS011;62738;45.772;4.804;2023-03-12T02:26:03;26.55;;;16.60;;
74320;SDS011;62738;45.772;4.804;2023-03-12T02:28:31;26.67;;;16.83;;
74320;SDS011;62738;45.772;4.804;2023-03-12T02:31:07;28.17;;;16.95;;
74320;SDS011;62738;45.772;4.804;2023-03-12T02:33:36;27.60;;;16.73;;
74320;SDS011;62738;45.772;4.804;2023-03-12T02:36:02;27.85;;;16.52;;
74320;SDS011;62738;45.772;4.804;2023-03-12T02:41:03;27.08;;;16.83;;
74320;SDS011;62738;45.772;4.804;2023-03-12T02:43:55;28.02;;;16.67;;
74320;SDS011;62738;45.772;4.804;2023-03-12T02:46:28;27.30;;;15.30;;
74320;SDS011;62738;45.772;4.804;2023-03-12T02:48:57;28.98;;;15.98;;
74320;SDS011;62738;45.772;4.804;2023-03-12T02:51:24;29.48;;;15.73;;
74320;SDS011;62738;45.772;4.804;2023-03-12T02:53:51;29.65;;;16.02;;
74320;SDS011;62738;45.772;4.804;2023-03-12T02:56:24;30.63;;;16.38;;
74320;SDS011;62738;45.772;4.804;2023-03-12T02:58:52;28.70;;;15.25;;
74320;SDS011;62738;45.772;4.804;2023-03-12T03:01:19;29.52;;;14.63;;
74320;SDS011;62738;45.772;4.804;2023-03-12T03:03:46;32.58;;;17.05;;
74320;SDS011;62738;45.772;4.804;2023-03-12T03:06:13;30.20;;;15.25;;
74320;SDS011;62738;45.772;4.804;2023-03-12T03:08:41;30.38;;;15.38;;
74320;SDS011;62738;45.772;4.804;2023-03-12T03:11:08;29.13;;;15.77;;
74320;SDS011;62738;45.772;4.804;2023-03-12T03:13:35;31.95;;;15.73;;
74320;SDS011;62738;45.772;4.804;2023-03-12T03:16:01;33.33;;;16.88;;
74320;SDS011;62738;45.772;4.804;2023-03-12T03:18:29;31.25;;;15.75;;
74320;SDS011;62738;45.772;4.804;2023-03-12T03:21:00;30.85;;;17.10;;
74320;SDS011;62738;45.772;4.804;2023-03-12T03:23:30;32.05;;;16.52;;
74320;SDS011;62738;45.772;4.804;2023-03-12T03:25:57;29.20;;;15.43;;
74320;SDS011;62738;45.772;4.804;2023-03-12T03:28:25;30.83;;;16.20;;
74320;SDS011;62738;45.772;4.804;2023-03-12T03:30:53;32.75;;;16.48;;
74320;SDS011;62738;45.772;4.804;2023-03-12T03:33:26;30.75;;;15.95;;
74320;SDS011;62738;45.772;4.804;2023-03-12T03:35:54;28.90;;;16.33;;
74320;SDS011;62738;45.772;4.804;2023-03-12T03:38:22;33.97;;;16.67;;
74320;SDS011;62738;45.772;4.804;2023-03-12T03:40:48;31.02;;;16.70;;
74320;SDS011;62738;45.772;4.804;2023-03-12T03:43:15;31.52;;;16.58;;
74320;SDS011;62738;45.772;4.804;2023-03-12T03:45:42;29.55;;;16.35;;
74320;SDS011;62738;45.772;4.804;2023-03-12T03:48:10;29.33;;;16.15;;
74320;SDS011;62738;45.772;4.804;2023-03-12T03:50:38;29.60;;;15.98;;
74320;SDS011;62738;45.772;4.804;2023-03-12T03:53:06;30.70;;;16.35;;
74320;SDS011;62738;45.772;4.804;2023-03-12T03:55:37;31.33;;;15.52;;
74320;SDS011;62738;45.772;4.804;2023-03-12T04:00:32;30.15;;;15.27;;
74320;SDS011;62738;45.772;4.804;2023-03-12T04:02:59;28.50;;;15.80;;
74320;SDS011;62738;45.772;4.804;2023-03-12T04:05:26;29.20;;;16.00;;
74320;SDS011;62738;45.772;4.804;2023-03-12T04:07:53;30.15;;;15.07;;
74320;SDS011;62738;45.772;4.804;2023-03-12T04:10:20;31.27;;;15.98;;
74320;SDS011;62738;45.772;4.804;2023-03-12T04:12:47;32.83;;;16.33;;
74320;SDS011;62738;45.772;4.804;2023-03-12T04:15:14;28.55;;;15.38;;
74320;SDS011;62738;45.772;4.804;2023-03-12T04:17:41;29.98;;;16.08;;
74320;SDS011;62738;45.772;4.804;2023-03-12T04:20:08;28.95;;;16.15;;
74320;SDS011;62738;45.772;4.804;2023-03-12T04:22:36;30.25;;;15.15;;
74320;SDS011;62738;45.772;4.804;2023-03-12T04:25:03;30.23;;;16.67;;
74320;SDS011;62738;45.772;4.804;2023-03-12T04:27:30;33.92;;;16.55;;
74320;SDS011;62738;45.772;4.804;2023-03-12T04:29:56;33.92;;;16.42;;
74320;SDS011;62738;45.772;4.804;2023-03-12T04:32:23;32.47;;;16.38;;
74320;SDS011;62738;45.772;4.804;2023-03-12T04:34:50;30.48;;;16.38;;
74320;SDS011;62738;45.772;4.804;2023-03-12T04:37:16;32.58;;;15.98;;
74320;SDS011;62738;45.772;4.804;2023-03-12T04:39:43;30.88;;;15.70;;
74320;SDS011;62738;45.772;4.804;2023-03-12T04:42:10;28.95;;;15.88;;
74320;SDS011;62738;45.772;4.804;2023-03-12T04:44:37;31.90;;;15.82;;
74320;SDS011;62738;45.772;4.804;2023-03-12T04:47:05;28.17;;;15.07;;
74320;SDS011;62738;45.772;4.804;2023-03-12T04:49:32;26.95;;;15.43;;
74320;SDS011;62738;45.772;4.804;2023-03-12T04:51:58;34.53;;;16.10;;
74320;SDS011;62738;45.772;4.804;2023-03-12T04:54:25;31.27;;;15.85;;
74320;SDS011;62738;45.772;4.804;2023-03-12T04:56:51;28.48;;;15.40;;
74320;SDS011;62738;45.772;4.804;2023-03-12T04:59:18;28.45;;;15.35;;
74320;SDS011;62738;45.772;4.804;2023-03-12T05:01:45;31.50;;;16.10;;
74320;SDS011;62738;45.772;4.804;2023-03-12T05:04:11;26.08;;;14.30;;
74320;SDS011;62738;45.772;4.804;2023-03-12T05:06:38;27.95;;;15.77;;
74320;SDS011;62738;45.772;4.804;2023-03-12T05:09:05;28.48;;;16.42;;
74320;SDS011;62738;45.772;4.804;2023-03-12T05:11:31;26.63;;;14.85;;
74320;SDS011;62738;45.772;4.804;2023-03-12T05:13:58;25.88;;;14.63;;
74320;SDS011;62738;45.772;4.804;2023-03-12T05:16:24;27.10;;;14.75;;
74320;SDS011;62738;45.772;4.804;2023-03-12T05:18:51;26.75;;;14.20;;
74320;SDS011;62738;45.772;4.804;2023-03-12T05:21:18;28.08;;;14.30;;
74320;SDS011;62738;45.772;4.804;2023-03-12T05:23:46;26.30;;;15.23;;
74320;SDS011;62738;45.772;4.804;2023-03-12T05:26:23;23.88;;;13.20;;
74320;SDS011;62738;45.772;4.804;2023-03-12T05:28:50;23.25;;;13.13;;
74320;SDS011;62738;45.772;4.804;2023-03-12T05:31:17;25.58;;;14.50;;
74320;SDS011;62738;45.772;4.804;2023-03-12T05:33:44;24.52;;;13.07;;
74320;SDS011;62738;45.772;4.804;2023-03-12T05:36:12;23.17;;;13.57;;
74320;SDS011;62738;45.772;4.804;2023-03-12T05:38:39;23.85;;;14.13;;
74320;SDS011;62738;45.772;4.804;2023-03-12T05:41:09;25.27;;;14.48;;
74320;SDS011;62738;45.772;4.804;2023-03-12T05:43:43;26.80;;;14.65;;
74320;SDS011;62738;45.772;4.804;2023-03-12T05:46:09;30.42;;;15.90;;
74320;SDS011;62738;45.772;4.804;2023-03-12T05:48:36;27.85;;;15.25;;
74320;SDS011;62738;45.772;4.804;2023-03-12T05:51:03;30.23;;;15.60;;
74320;SDS011;62738;45.772;4.804;2023-03-12T05:53:29;28.25;;;14.68;;
74320;SDS011;62738;45.772;4.804;2023-03-12T05:56:01;26.77;;;14.63;;
74320;SDS011;62738;45.772;4.804;2023-03-12T05:58:29;27.38;;;14.57;;
74320;SDS011;62738;45.772;4.804;2023-03-12T06:00:56;25.08;;;14.82;;
74320;SDS011;62738;45.772;4.804;2023-03-12T06:03:22;25.70;;;14.07;;
74320;SDS011;62738;45.772;4.804;2023-03-12T06:05:49;27.98;;;14.63;;
74320;SDS011;62738;45.772;4.804;2023-03-12T06:08:20;28.25;;;15.43;;
74320;SDS011;62738;45.772;4.804;2023-03-12T06:10:51;24.92;;;14.07;;
74320;SDS011;62738;45.772;4.804;2023-03-12T06:13:20;27.13;;;14.50;;
74320;SDS011;62738;45.772;4.804;2023-03-12T06:15:48;27.17;;;14.18;;
74320;SDS011;62738;45.772;4.804;2023-03-12T06:18:15;27.02;;;14.60;;
74320;SDS011;62738;45.772;4.804;2023-03-12T06:20:41;25.55;;;14.18;;
74320;SDS011;62738;45.772;4.804;2023-03-12T06:23:08;25.38;;;14.50;;
74320;SDS011;62738;45.772;4.804;2023-03-12T06:25:35;27.13;;;14.57;;
74320;SDS011;62738;45.772;4.804;2023-03-12T06:28:01;27.30;;;14.73;;
74320;SDS011;62738;45.772;4.804;2023-03-12T06:30:28;28.98;;;14.98;;
74320;SDS011;62738;45.772;4.804;2023-03-12T06:32:55;28.00;;;13.88;;
74320;SDS011;62738;45.772;4.804;2023-03-12T06:35:23;26.88;;;14.32;;
74320;SDS011;62738;45.772;4.804;2023-03-12T06:37:50;29.58;;;14.85;;
74320;SDS011;62738;45.772;4.804;2023-03-12T06:40:16;27.30;;;13.98;;
74320;SDS011;62738;45.772;4.804;2023-03-12T06:42:43;25.83;;;15.10;;
74320;SDS011;62738;45.772;4.804;2023-03-12T06:45:10;25.95;;;14.07;;
74320;SDS011;62738;45.772;4.804;2023-03-12T06:47:36;28.67;;;15.30;;
74320;SDS011;62738;45.772;4.804;2023-03-12T06:50:03;26.77;;;14.50;;
74320;SDS011;62738;45.772;4.804;2023-03-12T06:52:30;27.23;;;13.85;;
74320;SDS011;62738;45.772;4.804;2023-03-12T06:54:57;31.40;;;15.52;;
74320;SDS011;62738;45.772;4.804;2023-03-12T06:57:23;29.33;;;14.77;;
74320;SDS011;62738;45.772;4.804;2023-03-12T06:59:50;25.77;;;15.10;;
74320;SDS011;62738;45.772;4.804;2023-03-12T07:02:16;27.63;;;14.27;;
74320;SDS011;62738;45.772;4.804;2023-03-12T07:04:43;26.83;;;14.25;;
74320;SDS011;62738;45.772;4.804;2023-03-12T07:07:10;26.73;;;14.32;;
74320;SDS011;62738;45.772;4.804;2023-03-12T07:09:37;29.23;;;15.80;;
74320;SDS011;62738;45.772;4.804;2023-03-12T07:12:04;29.58;;;15.57;;
74320;SDS011;62738;45.772;4.804;2023-03-12T07:14:30;31.05;;;15.63;;
74320;SDS011;62738;45.772;4.804;2023-03-12T07:16:57;27.77;;;15.02;;
74320;SDS011;62738;45.772;4.804;2023-03-12T07:19:24;26.00;;;14.68;;
74320;SDS011;62738;45.772;4.804;2023-03-12T07:21:50;24.70;;;14.13;;
74320;SDS011;62738;45.772;4.804;2023-03-12T07:24:17;26.90;;;15.32;;
74320;SDS011;62738;45.772;4.804;2023-03-12T07:26:44;28.42;;;15.68;;
74320;SDS011;62738;45.772;4.804;2023-03-12T07:29:11;32.60;;;16.50;;
74320;SDS011;62738;45.772;4.804;2023-03-12T07:31:38;28.52;;;15.40;;
74320;SDS011;62738;45.772;4.804;2023-03-12T07:34:04;29.50;;;16.05;;
74320;SDS011;62738;45.772;4.804;2023-03-12T07:36:31;28.95;;;15.65;;
74320;SDS011;62738;45.772;4.804;2023-03-12T07:38:58;30.65;;;15.63;;
74320;SDS011;62738;45.772;4.804;2023-03-12T07:41:25;30.50;;;16.83;;
74320;SDS011;62738;45.772;4.804;2023-03-12T07:43:52;28.95;;;16.27;;
74320;SDS011;62738;45.772;4.804;2023-03-12T07:46:18;28.33;;;15.68;;
74320;SDS011;62738;45.772;4.804;2023-03-12T07:48:45;29.38;;;15.32;;
74320;SDS011;62738;45.772;4.804;2023-03-12T07:51:12;29.55;;;15.60;;
74320;SDS011;62738;45.772;4.804;2023-03-12T07:53:39;25.70;;;14.50;;
74320;SDS011;62738;45.772;4.804;2023-03-12T07:56:05;26.58;;;14.70;;
74320;SDS011;62738;45.772;4.804;2023-03-12T07:58:32;24.70;;;13.80;;
74320;SDS011;62738;45.772;4.804;2023-03-12T08:01:01;26.23;;;14.32;;
74320;SDS011;62738;45.772;4.804;2023-03-12T08:03:28;24.88;;;13.90;;
74320;SDS011;62738;45.772;4.804;2023-03-12T08:05:56;23.00;;;13.70;;
74320;SDS011;62738;45.772;4.804;2023-03-12T08:08:25;23.35;;;13.40;;
74320;SDS011;62738;45.772;4.804;2023-03-12T08:10:52;24.77;;;14.35;;
74320;SDS011;62738;45.772;4.804;2023-03-12T08:13:19;24.63;;;13.98;;
74320;SDS011;62738;45.772;4.804;2023-03-12T08:15:46;24.98;;;13.80;;
74320;SDS011;62738;45.772;4.804;2023-03-12T08:18:12;22.17;;;13.38;;
74320;SDS011;62738;45.772;4.804;2023-03-12T08:20:39;29.73;;;16.50;;
74320;SDS011;62738;45.772;4.804;2023-03-12T08:23:05;32.28;;;16.52;;
74320;SDS011;62738;45.772;4.804;2023-03-12T08:25:32;28.08;;;16.23;;
74320;SDS011;62738;45.772;4.804;2023-03-12T08:27:59;31.80;;;16.95;;
74320;SDS011;62738;45.772;4.804;2023-03-12T08:30:25;29.27;;;16.02;;
74320;SDS011;62738;45.772;4.804;2023-03-12T08:32:55;30.88;;;16.75;;
74320;SDS011;62738;45.772;4.804;2023-03-12T08:35:22;20.63;;;10.77;;
74320;SDS011;62738;45.772;4.804;2023-03-12T08:37:49;9.43;;;4.47;;
74320;SDS011;62738;45.772;4.804;2023-03-12T08:40:16;11.32;;;3.63;;
74320;SDS011;62738;45.772;4.804;2023-03-12T08:42:43;8.30;;;2.03;;
74320;SDS011;62738;45.772;4.804;2023-03-12T08:45:10;7.57;;;1.88;;
74320;SDS011;62738;45.772;4.804;2023-03-12T08:47:38;7.10;;;1.77;;
74320;SDS011;62738;45.772;4.804;2023-03-12T08:50:08;9.82;;;2.10;;
74320;SDS011;62738;45.772;4.804;2023-03-12T08:52:36;5.60;;;1.55;;
74320;SDS011;62738;45.772;4.804;2023-03-12T08:55:03;8.68;;;1.40;;
74320;SDS011;62738;45.772;4.804;2023-03-12T08:57:31;10.55;;;1.70;;
74320;SDS011;62738;45.772;4.804;2023-03-12T08:59:57;7.82;;;1.50;;
74320;SDS011;62738;45.772;4.804;2023-03-12T09:02:24;11.20;;;1.50;;
74320;SDS011;62738;45.772;4.804;2023-03-12T09:04:51;9.63;;;1.30;;
74320;SDS011;62738;45.772;4.804;2023-03-12T09:07:17;12.15;;;1.60;;
74320;SDS011;62738;45.772;4.804;2023-03-12T09:09:44;7.15;;;1.60;;
74320;SDS011;62738;45.772;4.804;2023-03-12T09:12:11;9.85;;;1.48;;
74320;SDS011;62738;45.772;4.804;2023-03-12T09:14:37;8.70;;;1.52;;
74320;SDS011;62738;45.772;4.804;2023-03-12T09:17:24;6.80;;;1.60;;
74320;SDS011;62738;45.772;4.804;2023-03-12T09:19:51;8.05;;;1.92;;
74320;SDS011;62738;45.772;4.804;2023-03-12T09:22:17;10.13;;;1.42;;
74320;SDS011;62738;45.772;4.804;2023-03-12T09:24:44;5.65;;;1.10;;
74320;SDS011;62738;45.772;4.804;2023-03-12T09:27:10;9.05;;;1.02;;
74320;SDS011;62738;45.772;4.804;2023-03-12T09:29:37;9.30;;;1.73;;
74320;SDS011;62738;45.772;4.804;2023-03-12T09:32:22;8.95;;;1.63;;
74320;SDS011;62738;45.772;4.804;2023-03-12T09:34:49;6.72;;;1.20;;
74320;SDS011;62738;45.772;4.804;2023-03-12T09:37:15;6.95;;;1.02;;
74320;SDS011;62738;45.772;4.804;2023-03-12T09:39:42;8.13;;;1.48;;
74320;SDS011;62738;45.772;4.804;2023-03-12T09:42:11;5.25;;;1.20;;
74320;SDS011;62738;45.772;4.804;2023-03-12T09:44:48;5.72;;;1.20;;
74320;SDS011;62738;45.772;4.804;2023-03-12T09:47:27;8.27;;;1.63;;
74320;SDS011;62738;45.772;4.804;2023-03-12T09:49:58;7.10;;;1.52;;
74320;SDS011;62738;45.772;4.804;2023-03-12T09:52:43;7.78;;;1.48;;
74320;SDS011;62738;45.772;4.804;2023-03-12T09:55:17;6.35;;;1.30;;
74320;SDS011;62738;45.772;4.804;2023-03-12T09:57:47;10.75;;;1.27;;
74320;SDS011;62738;45.772;4.804;2023-03-12T10:00:17;9.15;;;1.30;;
74320;SDS011;62738;45.772;4.804;2023-03-12T10:05:25;10.02;;;1.50;;
74320;SDS011;62738;45.772;4.804;2023-03-12T10:07:58;8.65;;;1.33;;
74320;SDS011;62738;45.772;4.804;2023-03-12T10:10:50;5.82;;;1.20;;
74320;SDS011;62738;45.772;4.804;2023-03-12T10:20:25;5.45;;;1.05;;
74320;SDS011;62738;45.772;4.804;2023-03-12T10:23:06;8.35;;;1.52;;
74320;SDS011;62738;45.772;4.804;2023-03-12T10:28:43;6.53;;;1.48;;
74320;SDS011;62738;45.772;4.804;2023-03-12T10:31:31;8.30;;;1.48;;
74320;SDS011;62738;45.772;4.804;2023-03-12T10:34:02;7.95;;;1.50;;
74320;SDS011;62738;45.772;4.804;2023-03-12T10:38:58;5.68;;;1.33;;
74320;SDS011;62738;45.772;4.804;2023-03-12T10:41:29;6.50;;;1.52;;
74320;SDS011;62738;45.772;4.804;2023-03-12T10:44:01;13.60;;;2.47;;
74320;SDS011;62738;45.772;4.804;2023-03-12T10:51:56;14.77;;;1.65;;
74320;SDS011;62738;45.772;4.804;2023-03-12T10:54:40;11.18;;;1.40;;
74320;SDS011;62738;45.772;4.804;2023-03-12T10:57:10;7.05;;;1.52;;
74320;SDS011;62738;45.772;4.804;2023-03-12T10:59:38;5.28;;;1.48;;
74320;SDS011;62738;45.772;4.804;2023-03-12T11:02:25;7.80;;;1.50;;
74320;SDS011;62738;45.772;4.804;2023-03-12T11:04:55;8.02;;;1.40;;
74320;SDS011;62738;45.772;4.804;2023-03-12T11:12:35;8.43;;;1.30;;
74320;SDS011;62738;45.772;4.804;2023-03-12T11:15:19;6.68;;;1.10;;
74320;SDS011;62738;45.772;4.804;2023-03-12T11:17:51;8.63;;;1.50;;
74320;SDS011;62738;45.772;4.804;2023-03-12T11:22:47;12.52;;;1.83;;
74320;SDS011;62738;45.772;4.804;2023-03-12T11:25:26;6.47;;;1.00;;
74320;SDS011;62738;45.772;4.804;2023-03-12T11:27:55;10.80;;;1.60;;
74320;SDS011;62738;45.772;4.804;2023-03-12T11:30:28;7.78;;;1.30;;
74320;SDS011;62738;45.772;4.804;2023-03-12T11:33:02;8.52;;;1.67;;
74320;SDS011;62738;45.772;4.804;2023-03-12T11:35:33;7.93;;;1.15;;
74320;SDS011;62738;45.772;4.804;2023-03-12T11:38:22;10.55;;;1.45;;
74320;SDS011;62738;45.772;4.804;2023-03-12T11:40:58;8.80;;;1.77;;
74320;SDS011;62738;45.772;4.804;2023-03-12T11:43:54;8.15;;;1.38;;
74320;SDS011;62738;45.772;4.804;2023-03-12T11:54:23;8.93;;;1.70;;
74320;SDS011;62738;45.772;4.804;2023-03-12T11:57:17;6.82;;;1.60;;
74320;SDS011;62738;45.772;4.804;2023-03-12T12:14:15;7.30;;;1.40;;
74320;SDS011;62738;45.772;4.804;2023-03-12T12:17:29;5.53;;;1.20;;
74320;SDS011;62738;45.772;4.804;2023-03-12T12:20:14;9.77;;;1.45;;
74320;SDS011;62738;45.772;4.804;2023-03-12T12:22:52;10.35;;;1.90;;
74320;SDS011;62738;45.772;4.804;2023-03-12T12:25:51;6.20;;;1.10;;
74320;SDS011;62738;45.772;4.804;2023-03-12T12:31:25;3.63;;;0.90;;
74320;SDS011;62738;45.772;4.804;2023-03-12T12:36:28;3.63;;;0.98;;
74320;SDS011;62738;45.772;4.804;2023-03-12T12:39:00;4.07;;;1.10;;
74320;SDS011;62738;45.772;4.804;2023-03-12T12:41:31;7.55;;;1.10;;
74320;SDS011;62738;45.772;4.804;2023-03-12T12:44:10;4.20;;;0.85;;
74320;SDS011;62738;45.772;4.804;2023-03-12T12:46:47;8.40;;;1.15;;
74320;SDS011;62738;45.772;4.804;2023-03-12T12:49:21;4.10;;;1.00;;
74320;SDS011;62738;45.772;4.804;2023-03-12T12:51:59;5.95;;;1.50;;
74320;SDS011;62738;45.772;4.804;2023-03-12T13:02:26;3.17;;;0.90;;
74320;SDS011;62738;45.772;4.804;2023-03-12T13:04:56;6.30;;;0.90;;
74320;SDS011;62738;45.772;4.804;2023-03-12T13:09:54;4.63;;;1.20;;
74320;SDS011;62738;45.772;4.804;2023-03-12T13:14:51;8.10;;;1.35;;
74320;SDS011;62738;45.772;4.804;2023-03-12T13:17:35;4.65;;;1.30;;
74320;SDS011;62738;45.772;4.804;2023-03-12T13:20:21;5.00;;;1.42;;
74320;SDS011;62738;45.772;4.804;2023-03-12T13:23:02;5.72;;;1.25;;
74320;SDS011;62738;45.772;4.804;2023-03-12T13:25:52;6.07;;;1.58;;
74320;SDS011;62738;45.772;4.804;2023-03-12T13:36:43;4.18;;;1.10;;
74320;SDS011;62738;45.772;4.804;2023-03-12T13:46:56;5.38;;;0.98;;
74320;SDS011;62738;45.772;4.804;2023-03-12T13:49:24;4.75;;;1.42;;
74320;SDS011;62738;45.772;4.804;2023-03-12T13:51:53;5.97;;;1.50;;
74320;SDS011;62738;45.772;4.804;2023-03-12T13:54:24;6.28;;;1.30;;
74320;SDS011;62738;45.772;4.804;2023-03-12T13:56:58;6.85;;;1.85;;
74320;SDS011;62738;45.772;4.804;2023-03-12T13:59:28;6.35;;;1.33;;
74320;SDS011;62738;45.772;4.804;2023-03-12T14:01:58;4.85;;;1.00;;
74320;SDS011;62738;45.772;4.804;2023-03-12T14:04:29;7.10;;;1.17;;
74320;SDS011;62738;45.772;4.804;2023-03-12T14:15:43;7.32;;;1.75;;
74320;SDS011;62738;45.772;4.804;2023-03-12T14:18:22;5.75;;;1.27;;
74320;SDS011;62738;45.772;4.804;2023-03-12T14:20:57;4.30;;;0.90;;
74320;SDS011;62738;45.772;4.804;2023-03-12T14:23:32;6.93;;;1.90;;
74320;SDS011;62738;45.772;4.804;2023-03-12T14:26:02;6.78;;;1.33;;
74320;SDS011;62738;45.772;4.804;2023-03-12T14:28:30;6.05;;;1.60;;
74320;SDS011;62738;45.772;4.804;2023-03-12T14:31:12;4.25;;;1.10;;
74320;SDS011;62738;45.772;4.804;2023-03-12T14:36:28;6.65;;;1.02;;
74320;SDS011;62738;45.772;4.804;2023-03-12T14:39:12;5.82;;;1.50;;
74320;SDS011;62738;45.772;4.804;2023-03-12T14:41:43;4.45;;;1.13;;
74320;SDS011;62738;45.772;4.804;2023-03-12T14:44:21;6.40;;;1.10;;
74320;SDS011;62738;45.772;4.804;2023-03-12T14:46:54;6.85;;;1.38;;
74320;SDS011;62738;45.772;4.804;2023-03-12T14:49:29;7.85;;;1.20;;
74320;SDS011;62738;45.772;4.804;2023-03-12T14:51:58;3.95;;;1.15;;
74320;SDS011;62738;45.772;4.804;2023-03-12T14:54:26;10.63;;;1.85;;
74320;SDS011;62738;45.772;4.804;2023-03-12T14:57:03;5.07;;;1.25;;
74320;SDS011;62738;45.772;4.804;2023-03-12T14:59:30;3.92;;;0.93;;
74320;SDS011;62738;45.772;4.804;2023-03-12T15:02:00;4.28;;;1.00;;
74320;SDS011;62738;45.772;4.804;2023-03-12T15:04:30;3.85;;;1.00;;
74320;SDS011;62738;45.772;4.804;2023-03-12T15:10:06;6.32;;;1.10;;
74320;SDS011;62738;45.772;4.804;2023-03-12T15:12:43;4.78;;;1.10;;
74320;SDS011;62738;45.772;4.804;2023-03-12T15:18:13;5.65;;;1.40;;
74320;SDS011;62738;45.772;4.804;2023-03-12T15:20:43;4.80;;;1.00;;
74320;SDS011;62738;45.772;4.804;2023-03-12T15:23:11;5.55;;;0.93;;
74320;SDS011;62738;45.772;4.804;2023-03-12T15:25:39;5.93;;;1.20;;
74320;SDS011;62738;45.772;4.804;2023-03-12T15:28:21;2.83;;;1.00;;
74320;SDS011;62738;45.772;4.804;2023-03-12T15:31:04;4.18;;;1.00;;
74320;SDS011;62738;45.772;4.804;2023-03-12T15:33:43;3.53;;;0.80;;
74320;SDS011;62738;45.772;4.804;2023-03-12T15:38:53;3.53;;;1.00;;
74320;SDS011;62738;45.772;4.804;2023-03-12T15:41:24;4.68;;;0.85;;
74320;SDS011;62738;45.772;4.804;2023-03-12T15:43:54;5.40;;;0.95;;
74320;SDS011;62738;45.772;4.804;2023-03-12T15:46:23;3.40;;;0.93;;
74320;SDS011;62738;45.772;4.804;2023-03-12T15:48:51;3.22;;;0.95;;
74320;SDS011;62738;45.772;4.804;2023-03-12T15:51:34;2.35;;;0.90;;
74320;SDS011;62738;45.772;4.804;2023-03-12T15:54:05;5.30;;;1.30;;
74320;SDS011;62738;45.772;4.804;2023-03-12T15:56:49;4.40;;;1.10;;
74320;SDS011;62738;45.772;4.804;2023-03-12T16:01:46;4.68;;;0.98;;
74320;SDS011;62738;45.772;4.804;2023-03-12T16:04:18;2.83;;;0.85;;
74320;SDS011;62738;45.772;4.804;2023-03-12T16:06:46;4.82;;;1.30;;
74320;SDS011;62738;45.772;4.804;2023-03-12T16:09:19;4.00;;;0.80;;
74320;SDS011;62738;45.772;4.804;2023-03-12T16:11:50;3.55;;;0.75;;
74320;SDS011;62738;45.772;4.804;2023-03-12T16:14:22;4.97;;;1.00;;
74320;SDS011;62738;45.772;4.804;2023-03-12T16:16:52;4.40;;;0.98;;
74320;SDS011;62738;45.772;4.804;2023-03-12T16:19:20;5.65;;;0.77;;
74320;SDS011;62738;45.772;4.804;2023-03-12T16:21:48;4.47;;;0.90;;
74320;SDS011;62738;45.772;4.804;2023-03-12T16:24:15;7.70;;;1.20;;
74320;SDS011;62738;45.772;4.804;2023-03-12T16:26:47;4.15;;;0.55;;
74320;SDS011;62738;45.772;4.804;2023-03-12T16:29:18;3.85;;;0.90;;
74320;SDS011;62738;45.772;4.804;2023-03-12T16:31:48;2.88;;;0.70;;
74320;SDS011;62738;45.772;4.804;2023-03-12T16:34:19;2.97;;;0.82;;
74320;SDS011;62738;45.772;4.804;2023-03-12T16:36:45;3.70;;;0.80;;
74320;SDS011;62738;45.772;4.804;2023-03-12T16:39:12;4.35;;;0.88;;
74320;SDS011;62738;45.772;4.804;2023-03-12T16:41:39;4.15;;;1.00;;
74320;SDS011;62738;45.772;4.804;2023-03-12T16:44:06;3.08;;;0.80;;
74320;SDS011;62738;45.772;4.804;2023-03-12T16:46:37;4.10;;;0.90;;
74320;SDS011;62738;45.772;4.804;2023-03-12T16:49:04;5.70;;;1.17;;